Time;durP1;ratioP1;P1;durP2;ratioP2;P2;SDS_P1;SDS_P2;PMS_P1;PMS_P2;Temp;Humidity;BMP_temperature;BMP_pressure;BME280_temperature;BME280_humidity;BME280_pressure;Samples;Min_cycle;Max_cycle;Signal;HPM_P1;HPM_P2
2021/06/24 00:01:25;;;;;;;;;;;;;;;21.81;82.81;100943.19;5051634;28;1712;-45
2021/06/24 00:03:53;;;;;;;;;;;;;;;21.78;82.50;100932.69;5046310;28;1783;-44
2021/06/24 00:06:20;;;;;;;;;;;;;;;21.73;83.01;100928.78;5033944;28;1809;-44
2021/06/24 00:08:47;;;;;;;;;;;;;;;21.78;82.57;100938.09;5046593;28;1689;-44
2021/06/24 00:11:15;;;;;;;;;;;;;;;21.80;82.83;100928.00;5040387;28;1910;-44
2021/06/24 00:13:42;;;;;;;;;;;;;;;21.73;83.22;100910.78;5038120;28;1959;-45
2021/06/24 00:16:10;;;;;;;;;;;;;;;21.68;82.59;100909.53;5053779;28;1509;-44
2021/06/24 00:18:37;;;;;;;;;;;;;;;21.68;82.35;100899.59;5052278;28;1617;-45
2021/06/24 00:21:06;;;;;;;;;;;;;;;21.80;82.23;100919.94;5046788;28;1706;-44
2021/06/24 00:23:33;;;;;;;;;;;;;;;21.77;82.46;100904.09;5046144;28;1752;-44
2021/06/24 00:26:02;;;;;;;;;;;;;;;21.72;82.50;100906.38;5038474;28;1855;-44
2021/06/24 00:28:29;;;;;;;;;;;;;;;21.69;82.42;100917.47;5038910;28;1796;-44
2021/06/24 00:30:58;;;;;;;;;;;;;;;21.61;82.45;100903.91;5040263;28;1939;-44
2021/06/24 00:33:45;;;;;;;;;;;;;;;21.69;83.03;100916.63;5051801;28;1963;-44
2021/06/24 00:36:28;;;;;;;;;;;;;;;21.74;82.55;100906.25;5042693;28;1836;-44
2021/06/24 00:39:01;;;;;;;;;;;;;;;21.61;82.62;100885.91;5035650;28;1671;-44
2021/06/24 00:41:31;;;;;;;;;;;;;;;21.72;83.26;100876.78;5042872;28;1768;-44
2021/06/24 00:43:58;;;;;;;;;;;;;;;21.76;82.62;100882.72;5039037;28;1677;-44
2021/06/24 00:46:25;;;;;;;;;;;;;;;21.78;82.71;100872.63;5052453;28;1476;-44
2021/06/24 00:48:56;;;;;;;;;;;;;;;21.73;82.98;100869.56;5032759;28;1706;-44
2021/06/24 00:51:23;;;;;;;;;;;;;;;21.71;82.71;100872.41;5049907;28;1659;-44
2021/06/24 00:53:50;;;;;;;;;;;;;;;21.67;82.71;100859.41;5044791;28;1910;-44
2021/06/24 00:56:26;;;;;;;;;;;;;;;21.68;83.44;100874.56;5044230;28;1554;-44
2021/06/24 00:58:53;;;;;;;;;;;;;;;21.55;82.72;100883.00;5041904;28;1832;-44
2021/06/24 01:01:20;;;;;;;;;;;;;;;21.40;82.96;100902.25;5044838;28;1691;-45
2021/06/24 01:03:48;;;;;;;;;;;;;;;21.47;83.31;100888.25;5043529;28;1824;-44
2021/06/24 01:06:16;;;;;;;;;;;;;;;21.52;83.25;100891.34;5035142;28;1710;-44
2021/06/24 01:08:46;;;;;;;;;;;;;;;21.52;82.51;100894.03;5042037;28;1964;-45
2021/06/24 01:11:13;;;;;;;;;;;;;;;21.53;82.00;100893.91;5043320;28;1944;-45
2021/06/24 01:13:56;;;;;;;;;;;;;;;21.53;82.07;100884.97;5042649;28;2402;-44
2021/06/24 01:16:26;;;;;;;;;;;;;;;21.61;81.85;100895.84;5053117;28;1919;-44
2021/06/24 01:19:00;;;;;;;;;;;;;;;21.53;82.08;100887.69;5048117;28;2013;-44
2021/06/24 01:21:26;;;;;;;;;;;;;;;21.41;81.50;100912.03;5040048;28;2006;-44
2021/06/24 01:24:06;;;;;;;;;;;;;;;21.56;81.48;100888.19;5042657;28;1679;-44
2021/06/24 01:26:33;;;;;;;;;;;;;;;21.67;82.31;100887.16;5040455;28;1768;-44
2021/06/24 01:29:07;;;;;;;;;;;;;;;21.69;82.06;100885.16;5040934;28;1787;-44
2021/06/24 01:31:34;;;;;;;;;;;;;;;21.72;81.15;100884.00;5050042;28;1834;-44
2021/06/24 01:34:02;;;;;;;;;;;;;;;21.67;81.70;100854.88;5050639;28;1990;-44
2021/06/24 01:36:29;;;;;;;;;;;;;;;21.70;81.17;100868.00;5047240;28;1828;-43
2021/06/24 01:38:57;;;;;;;;;;;;;;;21.62;81.40;100846.38;5046499;28;1946;-44
2021/06/24 01:41:25;;;;;;;;;;;;;;;21.59;80.93;100863.69;5045727;28;1817;-44
2021/06/24 01:43:52;;;;;;;;;;;;;;;21.57;81.23;100848.69;5048765;28;1658;-44
2021/06/24 01:46:20;;;;;;;;;;;;;;;21.61;81.56;100860.84;5053128;28;1539;-44
2021/06/24 01:48:47;;;;;;;;;;;;;;;21.62;81.34;100867.91;5047743;28;1793;-44
2021/06/24 01:51:17;;;;;;;;;;;;;;;21.54;81.28;100860.59;5051118;28;1915;-44
2021/06/24 01:53:44;;;;;;;;;;;;;;;21.55;81.69;100873.06;5046066;28;1909;-44
2021/06/24 01:56:14;;;;;;;;;;;;;;;21.63;81.63;100866.94;5051465;28;1828;-44
2021/06/24 01:58:41;;;;;;;;;;;;;;;21.69;80.93;100874.41;5046725;28;1538;-44
2021/06/24 02:01:24;;;;;;;;;;;;;;;21.68;81.37;100866.47;5131264;23;3559;-44
2021/06/24 02:03:54;;;;;;;;;;;;;;;21.63;80.67;100861.56;5019219;28;2283;-44
2021/06/24 02:06:23;;;;;;;;;;;;;;;21.59;80.58;100889.75;5025472;28;1510;-44
2021/06/24 02:08:51;;;;;;;;;;;;;;;21.57;80.63;100883.69;5020810;28;1726;-45
2021/06/24 02:11:19;;;;;;;;;;;;;;;21.48;80.44;100898.03;5019285;28;1975;-45
2021/06/24 02:13:46;;;;;;;;;;;;;;;21.50;80.95;100893.34;5032630;28;2001;-44
2021/06/24 02:16:13;;;;;;;;;;;;;;;21.57;80.96;100895.28;5027512;28;1912;-45
2021/06/24 02:18:43;;;;;;;;;;;;;;;21.54;80.44;100892.88;5030037;28;1645;-45
2021/06/24 02:21:10;;;;;;;;;;;;;;;21.51;80.76;100889.66;5019631;28;1958;-44
2021/06/24 02:23:39;;;;;;;;;;;;;;;21.53;81.27;100901.13;5027999;28;1626;-44
2021/06/24 02:26:06;;;;;;;;;;;;;;;21.52;80.29;100904.78;5016180;28;2819;-45
2021/06/24 02:28:43;;;;;;;;;;;;;;;21.52;81.24;100894.03;5026005;28;1847;-44
2021/06/24 02:31:10;;;;;;;;;;;;;;;21.48;80.80;100898.03;5025311;28;1043;-44
2021/06/24 02:33:38;;;;;;;;;;;;;;;21.29;81.23;100891.72;4988868;28;1983;-45
2021/06/24 02:36:05;;;;;;;;;;;;;;;21.35;81.18;100899.19;5026086;28;1624;-44
2021/06/24 02:38:35;;;;;;;;;;;;;;;21.43;81.97;100895.78;5017787;28;1793;-45
2021/06/24 02:41:03;;;;;;;;;;;;;;;21.42;81.93;100896.72;5030168;28;2111;-44
2021/06/24 02:43:40;;;;;;;;;;;;;;;21.52;80.98;100908.31;5024838;28;1822;-45
2021/06/24 02:46:14;;;;;;;;;;;;;;;21.51;80.74;100887.81;5017191;28;1074;-45
2021/06/24 02:48:50;;;;;;;;;;;;;;;21.49;80.53;100888.94;5014956;28;1926;-44
2021/06/24 02:51:17;;;;;;;;;;;;;;;21.49;80.63;100883.56;5024296;28;1780;-44
2021/06/24 02:53:47;;;;;;;;;;;;;;;21.44;80.81;100890.22;5023594;28;1973;-44
2021/06/24 02:56:17;;;;;;;;;;;;;;;21.38;80.49;100901.56;5028286;28;1866;-44
2021/06/24 02:58:46;;;;;;;;;;;;;;;21.40;80.76;100899.56;5014087;28;1981;-44
2021/06/24 03:01:14;;;;;;;;;;;;;;;21.43;80.51;100902.00;5027624;28;1712;-44
2021/06/24 03:03:42;;;;;;;;;;;;;;;21.51;80.91;100897.75;5024050;28;1699;-44
2021/06/24 03:06:10;;;;;;;;;;;;;;;21.52;80.38;100913.72;5021057;28;1676;-45
2021/06/24 03:08:37;;;;;;;;;;;;;;;21.56;80.78;100908.88;5031201;28;1645;-45
2021/06/24 03:11:04;;;;;;;;;;;;;;;21.57;80.11;100913.28;5015358;28;1657;-45
2021/06/24 03:13:32;;;;;;;;;;;;;;;21.58;80.07;100904.19;5024073;28;1913;-44
2021/06/24 03:18:42;;;;;;;;;;;;;;;21.59;81.11;100905.91;5023471;28;2494;-44
2021/06/24 03:21:11;;;;;;;;;;;;;;;21.64;81.15;100899.06;5024407;28;1600;-44
2021/06/24 03:23:46;;;;;;;;;;;;;;;21.71;80.57;100898.47;5026139;28;1713;-45
2021/06/24 03:26:23;;;;;;;;;;;;;;;21.72;80.74;100908.25;5019562;28;1743;-45
2021/06/24 03:28:52;;;;;;;;;;;;;;;21.72;80.80;100919.84;5022980;28;2383;-45
2021/06/24 03:31:19;;;;;;;;;;;;;;;21.70;80.46;100903.00;5024381;28;1751;-44
2021/06/24 03:33:47;;;;;;;;;;;;;;;21.72;81.01;100900.16;5025334;28;1998;-45
2021/06/24 03:36:14;;;;;;;;;;;;;;;21.74;80.87;100898.16;5028753;28;1793;-44
2021/06/24 03:38:46;;;;;;;;;;;;;;;21.83;80.88;100908.88;5021401;28;1639;-44
2021/06/24 03:41:23;;;;;;;;;;;;;;;21.96;79.56;100913.06;5020944;28;1805;-44
2021/06/24 03:46:33;;;;;;;;;;;;;;;21.94;79.72;100933.91;5026269;28;2711;-44
2021/06/24 03:49:02;;;;;;;;;;;;;;;21.95;79.67;100931.06;5024824;28;1605;-44
2021/06/24 03:51:30;;;;;;;;;;;;;;;21.97;79.13;100934.44;5026581;28;1547;-45
2021/06/24 03:53:57;;;;;;;;;;;;;;;22.06;79.77;100924.59;5026841;28;1922;-45
2021/06/24 03:56:24;;;;;;;;;;;;;;;22.05;78.87;100928.31;5025371;28;1605;-44
2021/06/24 03:58:54;;;;;;;;;;;;;;;21.95;78.83;100927.53;5025016;28;1569;-44
2021/06/24 04:01:21;;;;;;;;;;;;;;;21.85;79.34;100924.88;5023327;28;1688;-46
2021/06/24 04:03:54;;;;;;;;;;;;;;;21.92;79.38;100934.03;5023714;28;1565;-45
2021/06/24 04:06:27;;;;;;;;;;;;;;;22.00;79.05;100952.13;5022636;28;1742;-45
2021/06/24 04:08:54;;;;;;;;;;;;;;;22.02;78.74;100960.91;5028198;28;1661;-45
2021/06/24 04:11:25;;;;;;;;;;;;;;;22.10;79.03;100957.47;5020001;28;1704;-44
2021/06/24 04:13:54;;;;;;;;;;;;;;;22.11;79.06;100960.03;5024321;28;1906;-44
2021/06/24 04:16:21;;;;;;;;;;;;;;;22.21;79.12;100947.34;5024354;28;1468;-44
2021/06/24 04:18:50;;;;;;;;;;;;;;;22.29;79.76;100953.84;5029050;28;1811;-44
2021/06/24 04:21:24;;;;;;;;;;;;;;;22.29;79.48;100946.59;5026721;28;1838;-44
2021/06/24 04:23:56;;;;;;;;;;;;;;;22.26;79.34;100943.38;5022791;28;1620;-44
2021/06/24 04:26:24;;;;;;;;;;;;;;;22.34;79.28;100946.13;5022620;28;1804;-44
2021/06/24 04:28:51;;;;;;;;;;;;;;;22.33;79.19;100947.16;5021221;28;1817;-44
2021/06/24 04:31:22;;;;;;;;;;;;;;;22.38;79.67;100950.22;5027505;28;1131;-44
2021/06/24 04:33:56;;;;;;;;;;;;;;;22.49;79.38;100931.13;5021801;28;2801;-43
2021/06/24 04:36:24;;;;;;;;;;;;;;;22.52;78.63;100944.31;5017875;28;1526;-44
2021/06/24 04:38:51;;;;;;;;;;;;;;;22.47;79.27;100941.22;5018904;28;1679;-44
2021/06/24 04:41:21;;;;;;;;;;;;;;;22.51;79.17;100942.59;5017244;28;1606;-44
2021/06/24 04:43:47;;;;;;;;;;;;;;;22.51;79.65;100942.59;5020131;28;1931;-44
2021/06/24 04:46:15;;;;;;;;;;;;;;;22.57;79.40;100955.47;5019292;28;1328;-45
2021/06/24 04:48:46;;;;;;;;;;;;;;;22.57;79.08;100952.75;5017185;28;1747;-43
2021/06/24 04:51:15;;;;;;;;;;;;;;;22.60;78.80;100959.69;5022133;28;1652;-44
2021/06/24 05:05:06;;;;;;;;;;;;;;;22.64;79.41;100945.75;5085274;27;1802;-43
2021/06/24 05:07:32;;;;;;;;;;;;;;;22.69;79.23;100957.94;5083146;28;1439;-45
2021/06/24 05:09:59;;;;;;;;;;;;;;;22.73;79.08;100954.75;5084487;28;1777;-43
2021/06/24 05:12:26;;;;;;;;;;;;;;;22.77;78.88;100944.50;5087454;28;1976;-44
2021/06/24 05:14:53;;;;;;;;;;;;;;;22.81;78.77;100940.50;5083286;28;1896;-43
2021/06/24 05:17:26;;;;;;;;;;;;;;;22.81;78.79;100940.50;5077513;28;1851;-44
2021/06/24 05:19:53;;;;;;;;;;;;;;;22.82;78.74;100948.44;5082573;28;1491;-44
2021/06/24 05:22:24;;;;;;;;;;;;;;;22.83;78.85;100954.66;5088076;28;1237;-44
2021/06/24 05:24:51;;;;;;;;;;;;;;;22.85;78.73;100963.44;5082407;28;1463;-44
2021/06/24 05:27:20;;;;;;;;;;;;;;;22.79;78.78;100953.28;5086028;28;1699;-44
2021/06/24 05:29:47;;;;;;;;;;;;;;;22.77;78.73;100947.22;5084736;28;1450;-43
2021/06/24 05:32:13;;;;;;;;;;;;;;;22.78;79.21;100959.66;5079531;28;1584;-44
2021/06/24 05:34:41;;;;;;;;;;;;;;;22.74;78.99;100959.16;5085008;28;1977;-44
2021/06/24 05:37:08;;;;;;;;;;;;;;;22.71;79.18;100961.31;5086131;28;1576;-44
2021/06/24 05:39:41;;;;;;;;;;;;;;;22.64;79.44;100959.25;5081999;28;1740;-44
2021/06/24 05:42:09;;;;;;;;;;;;;;;22.66;79.28;100961.78;5077778;28;1670;-43
2021/06/24 05:44:37;;;;;;;;;;;;;;;22.62;79.53;100961.25;5082858;28;1530;-42
2021/06/24 05:47:04;;;;;;;;;;;;;;;22.62;79.22;100969.34;5084175;28;1916;-43
2021/06/24 05:49:35;;;;;;;;;;;;;;;22.60;79.06;100960.56;5083101;28;1445;-44
2021/06/24 05:52:02;;;;;;;;;;;;;;;22.63;79.17;100956.69;5087524;28;1382;-44
2021/06/24 05:54:29;;;;;;;;;;;;;;;22.62;79.53;100966.63;5082476;28;1901;-43
2021/06/24 05:56:58;;;;;;;;;;;;;;;22.64;79.23;100963.75;5078702;28;1623;-43
2021/06/24 05:59:24;;;;;;;;;;;;;;;22.64;79.38;100964.63;5075037;28;1469;-43
2021/06/24 06:01:52;;;;;;;;;;;;;;;22.70;79.20;100975.78;5079950;28;1491;-43
2021/06/24 06:04:21;;;;;;;;;;;;;;;22.66;79.42;100960.91;5068960;28;1618;-43
2021/06/24 06:06:48;;;;;;;;;;;;;;;22.64;79.46;100950.28;5073806;28;1095;-43
2021/06/24 06:09:16;;;;;;;;;;;;;;;22.64;79.43;100961.06;5068041;28;1498;-44
2021/06/24 06:11:44;;;;;;;;;;;;;;;22.67;79.47;100966.16;5065771;28;2084;-43
2021/06/24 06:14:14;;;;;;;;;;;;;;;22.66;79.46;100951.00;5059583;28;1968;-44
2021/06/24 06:16:44;;;;;;;;;;;;;;;22.67;79.29;100959.94;5065628;28;1461;-45
2021/06/24 06:19:11;;;;;;;;;;;;;;;22.71;79.29;100966.72;5061291;28;1590;-44
2021/06/24 06:21:38;;;;;;;;;;;;;;;22.72;79.27;100969.25;5064449;28;1774;-44
2021/06/24 06:24:04;;;;;;;;;;;;;;;22.74;79.21;100961.00;5067102;28;1635;-43
2021/06/24 06:26:31;;;;;;;;;;;;;;;22.74;79.27;100963.69;5069079;28;1496;-43
2021/06/24 06:29:03;;;;;;;;;;;;;;;22.72;79.29;100968.38;5068319;28;1561;-44
2021/06/24 06:31:31;;;;;;;;;;;;;;;22.72;79.27;100957.59;5067658;28;1548;-44
2021/06/24 06:33:57;;;;;;;;;;;;;;;22.76;79.22;100975.16;5063293;28;1962;-44
2021/06/24 06:36:24;;;;;;;;;;;;;;;22.74;79.12;100969.06;5068113;28;1425;-43
2021/06/24 06:38:51;;;;;;;;;;;;;;;22.75;79.23;100960.00;5069818;28;1525;-44
2021/06/24 06:41:18;;;;;;;;;;;;;;;22.74;79.31;100967.25;5065452;28;1470;-43
2021/06/24 06:43:44;;;;;;;;;;;;;;;22.76;79.09;100953.59;5068460;28;1613;-44
2021/06/24 06:46:11;;;;;;;;;;;;;;;22.77;78.94;100960.69;5067637;28;1683;-44
2021/06/24 06:48:40;;;;;;;;;;;;;;;22.77;79.18;100966.09;5070326;28;1594;-44
2021/06/24 06:51:07;;;;;;;;;;;;;;;22.76;79.20;100964.38;5065002;28;1469;-44
2021/06/24 06:53:33;;;;;;;;;;;;;;;22.74;79.08;100963.69;5069065;28;1909;-44
2021/06/24 06:56:00;;;;;;;;;;;;;;;22.75;78.88;100951.91;5067035;28;1933;-43
2021/06/24 06:58:26;;;;;;;;;;;;;;;22.80;78.99;100976.53;5068907;28;1078;-43
2021/06/24 07:00:53;;;;;;;;;;;;;;;22.78;78.94;100976.72;5068957;28;1386;-44
2021/06/24 07:03:19;;;;;;;;;;;;;;;22.79;78.90;100969.47;5065104;28;1576;-44
2021/06/24 07:05:47;;;;;;;;;;;;;;;22.78;78.73;100959.66;5064221;28;1624;-43
2021/06/24 07:08:14;;;;;;;;;;;;;;;22.78;78.99;100982.09;5067385;28;1396;-45
2021/06/24 07:10:40;;;;;;;;;;;;;;;22.77;78.92;100976.88;5069991;28;1238;-43
2021/06/24 07:13:07;;;;;;;;;;;;;;;22.81;78.97;100984.47;5066502;28;1972;-44
2021/06/24 07:15:33;;;;;;;;;;;;;;;22.81;78.77;100970.16;5068042;28;1541;-43
2021/06/24 07:18:00;;;;;;;;;;;;;;;22.81;78.77;100973.69;5064658;28;1414;-44
2021/06/24 07:20:27;;;;;;;;;;;;;;;22.82;78.65;100980.78;5065241;28;1573;-44
2021/06/24 07:22:55;;;;;;;;;;;;;;;22.84;78.78;100967.16;5069609;28;1258;-44
2021/06/24 07:25:22;;;;;;;;;;;;;;;22.83;78.86;100981.63;5066398;28;1577;-44
2021/06/24 07:27:51;;;;;;;;;;;;;;;22.80;78.73;100976.53;5062403;28;1501;-43
2021/06/24 07:30:18;;;;;;;;;;;;;;;22.82;78.56;100985.34;5067865;28;1493;-45
2021/06/24 07:32:44;;;;;;;;;;;;;;;22.80;78.78;100974.72;5062210;28;1543;-44
2021/06/24 07:35:11;;;;;;;;;;;;;;;22.77;78.76;100953.44;5060725;28;1902;-44
2021/06/24 07:37:38;;;;;;;;;;;;;;;22.79;78.76;100974.88;5070895;28;1466;-43
2021/06/24 07:40:07;;;;;;;;;;;;;;;22.81;78.67;100962.06;5064518;28;1533;-44
2021/06/24 07:42:34;;;;;;;;;;;;;;;22.82;78.55;100963.78;5062921;28;1436;-43
2021/06/24 07:45:00;;;;;;;;;;;;;;;22.90;78.72;100965.66;5063341;28;1625;-43
2021/06/24 07:47:27;;;;;;;;;;;;;;;22.11;77.88;100959.19;5064096;28;1527;-43
2021/06/24 07:49:53;;;;;;;;;;;;;;;21.22;76.85;100960.50;5063622;28;1576;-43
2021/06/24 07:52:20;;;;;;;;;;;;;;;20.93;75.57;100958.75;5066781;28;1088;-42
2021/06/24 07:54:47;;;;;;;;;;;;;;;20.51;75.75;100963.50;5054842;28;1910;-42
2021/06/24 07:57:14;;;;;;;;;;;;;;;20.25;75.10;100956.88;5062536;28;1499;-42
2021/06/24 07:59:41;;;;;;;;;;;;;;;20.20;73.98;100943.00;5062556;28;1627;-43
2021/06/24 08:02:08;;;;;;;;;;;;;;;20.13;74.93;100968.69;5058658;28;1534;-43
2021/06/24 08:04:34;;;;;;;;;;;;;;;20.18;73.80;100965.63;5048580;28;1559;-42
2021/06/24 08:07:01;;;;;;;;;;;;;;;20.20;73.88;100960.94;5058546;28;1158;-42
2021/06/24 08:09:27;;;;;;;;;;;;;;;20.32;72.81;100972.41;5062833;28;1474;-43
2021/06/24 08:11:54;;;;;;;;;;;;;;;20.46;73.93;100963.94;5052365;28;1481;-42
2021/06/24 08:14:23;;;;;;;;;;;;;;;20.50;73.21;100956.47;5058480;28;1910;-42
2021/06/24 08:16:49;;;;;;;;;;;;;;;20.56;74.10;100967.47;5054719;28;1634;-42
2021/06/24 08:19:16;;;;;;;;;;;;;;;20.39;73.35;100960.09;5056053;28;1665;-42
2021/06/24 08:21:43;;;;;;;;;;;;;;;20.16;73.10;100959.53;5058042;28;1154;-42
2021/06/24 08:24:09;;;;;;;;;;;;;;;20.00;72.75;100970.78;5050477;28;1560;-42
2021/06/24 08:26:36;;;;;;;;;;;;;;;19.98;73.13;100960.19;5053895;28;1425;-42
2021/06/24 08:29:03;;;;;;;;;;;;;;;19.92;72.96;100952.69;5056614;28;1623;-42
2021/06/24 08:31:31;;;;;;;;;;;;;;;19.88;73.25;100972.75;5053014;28;1617;-42
2021/06/24 08:33:58;;;;;;;;;;;;;;;19.75;72.31;100951.50;5055865;28;1973;-42
2021/06/24 08:36:24;;;;;;;;;;;;;;;19.76;72.22;100947.84;5063684;28;1399;-42
2021/06/24 08:38:51;;;;;;;;;;;;;;;19.77;72.02;100946.84;5055179;28;1653;-42
2021/06/24 08:41:19;;;;;;;;;;;;;;;19.80;71.33;100949.25;5061666;28;1653;-42
2021/06/24 08:43:48;;;;;;;;;;;;;;;19.71;71.53;100943.81;5057019;28;1501;-42
2021/06/24 08:46:15;;;;;;;;;;;;;;;19.78;70.07;100945.88;5061370;28;1441;-42
2021/06/24 08:48:44;;;;;;;;;;;;;;;19.67;70.02;100948.59;5059905;28;1585;-42
2021/06/24 08:51:10;;;;;;;;;;;;;;;19.82;70.35;100951.81;5063129;28;1922;-42
2021/06/24 08:53:37;;;;;;;;;;;;;;;19.90;70.92;100938.56;5065656;28;1909;-42
2021/06/24 08:56:04;;;;;;;;;;;;;;;19.90;70.44;100943.09;5055651;28;1542;-43
2021/06/24 08:58:30;;;;;;;;;;;;;;;20.08;71.60;100936.06;5053317;28;1585;-43
2021/06/24 09:00:57;;;;;;;;;;;;;;;20.62;74.16;100933.88;5059103;28;1420;-42
2021/06/24 09:03:24;;;;;;;;;;;;;;;20.90;74.71;100932.13;5059173;28;1701;-42
2021/06/24 09:05:53;;;;;;;;;;;;;;;21.01;74.65;100944.59;5057444;28;1696;-43
2021/06/24 09:08:25;;;;;;;;;;;;;;;21.18;75.59;100934.91;5060630;28;1340;-43
2021/06/24 09:11:06;;;;;;;;;;;;;;;21.33;76.63;100946.91;5062347;28;1893;-44
2021/06/24 09:13:33;;;;;;;;;;;;;;;21.54;75.83;100941.31;5053495;28;2027;-43
2021/06/24 09:16:04;;;;;;;;;;;;;;;21.60;76.38;100942.56;5060051;28;1552;-43
2021/06/24 09:18:31;;;;;;;;;;;;;;;21.62;77.31;100924.44;5063573;28;1575;-43
2021/06/24 09:20:58;;;;;;;;;;;;;;;21.69;76.53;100930.94;5052818;28;1897;-45
2021/06/24 09:23:25;;;;;;;;;;;;;;;21.72;77.37;100919.84;5059960;28;1439;-43
2021/06/24 09:26:06;;;;;;;;;;;;;;;21.77;77.04;100925.63;5055113;28;1867;-45
2021/06/24 09:28:37;;;;;;;;;;;;;;;21.83;77.19;100934.97;5057991;28;1736;-44
2021/06/24 09:31:03;;;;;;;;;;;;;;;21.89;77.50;100928.13;5049394;28;1313;-44
2021/06/24 09:33:38;;;;;;;;;;;;;;;21.94;77.22;100915.06;5053897;28;1794;-44
2021/06/24 09:36:06;;;;;;;;;;;;;;;21.97;76.82;100923.69;5053931;28;1922;-44
2021/06/24 09:38:41;;;;;;;;;;;;;;;22.04;77.23;100932.00;5052698;28;1602;-43
2021/06/24 09:41:14;;;;;;;;;;;;;;;22.06;77.27;100924.59;5054365;28;1909;-43
2021/06/24 09:43:42;;;;;;;;;;;;;;;22.02;77.53;100921.38;5063554;28;1591;-43
2021/06/24 09:46:11;;;;;;;;;;;;;;;21.91;77.39;100908.13;5053906;28;1735;-44
2021/06/24 09:48:39;;;;;;;;;;;;;;;21.59;75.13;100919.38;5058029;28;1259;-43
2021/06/24 09:51:15;;;;;;;;;;;;;;;21.24;74.75;100920.88;5060964;28;1945;-42
2021/06/24 09:53:49;;;;;;;;;;;;;;;21.14;75.02;100933.50;5057267;28;1934;-43
2021/06/24 09:56:20;;;;;;;;;;;;;;;21.06;74.55;100920.78;5069067;28;1839;-42
2021/06/24 09:58:47;;;;;;;;;;;;;;;21.30;74.95;100917.59;5058171;28;1584;-43
2021/06/24 10:01:25;;;;;;;;;;;;;;;21.62;73.25;100937.88;5060399;28;1432;-44
2021/06/24 10:03:52;;;;;;;;;;;;;;;21.89;73.59;100918.22;5063936;28;1762;-46
2021/06/24 10:06:20;;;;;;;;;;;;;;;22.05;74.31;100931.84;5060311;28;1670;-43
2021/06/24 10:08:47;;;;;;;;;;;;;;;22.10;73.31;100925.16;5059400;28;1600;-43
2021/06/24 10:11:13;;;;;;;;;;;;;;;22.16;72.88;100914.63;5056380;28;1596;-43
2021/06/24 10:13:40;;;;;;;;;;;;;;;22.25;73.21;100918.28;5058986;28;1575;-44
2021/06/24 10:16:06;;;;;;;;;;;;;;;22.34;73.67;100921.88;5060632;28;1906;-44
2021/06/24 10:18:35;;;;;;;;;;;;;;;22.30;74.29;100909.72;5059378;28;1705;-44
2021/06/24 10:21:02;;;;;;;;;;;;;;;22.30;74.70;100915.13;5065183;28;1677;-43
2021/06/24 10:23:30;;;;;;;;;;;;;;;22.27;74.90;100905.50;5065469;28;1639;-42
2021/06/24 10:25:57;;;;;;;;;;;;;;;22.28;75.07;100909.88;5058931;28;1683;-43
2021/06/24 10:28:24;;;;;;;;;;;;;;;22.27;75.18;100899.28;5059413;28;1415;-43
2021/06/24 10:30:50;;;;;;;;;;;;;;;;;;5063502;28;1894;-43
2021/06/24 10:33:17;;;;;;;;;;;;;;;22.44;74.67;100911.88;5055521;28;1669;-43
2021/06/24 10:35:46;;;;;;;;;;;;;;;22.41;74.80;100896.88;5064006;28;1909;-43
2021/06/24 10:38:13;;;;;;;;;;;;;;;22.43;74.73;100894.03;5052522;28;1552;-43
2021/06/24 10:40:42;;;;;;;;;;;;;;;22.45;74.78;100910.88;5055570;28;1424;-43
2021/06/24 10:43:09;;;;;;;;;;;;;;;22.45;74.78;100913.59;5057431;28;1887;-44
2021/06/24 10:45:36;;;;;;;;;;;;;;;22.50;74.93;100905.91;5056633;28;1966;-44
2021/06/24 10:48:17;;;;;;;;;;;;;;;22.49;74.99;100904.19;5059184;28;1592;-43
2021/06/24 10:50:44;;;;;;;;;;;;;;;22.52;75.61;100903.88;5050630;28;1856;-43
2021/06/24 10:53:29;;;;;;;;;;;;;;;22.49;76.15;100914.97;5052729;28;1628;-43
2021/06/24 10:55:57;;;;;;;;;;;;;;;22.46;76.28;100915.25;5058105;28;1902;-44
2021/06/24 10:58:36;;;;;;;;;;;;;;;22.43;76.42;100894.88;5054392;28;1459;-43
2021/06/24 11:01:04;;;;;;;;;;;;;;;22.46;75.67;100885.63;5052987;28;1475;-43
2021/06/24 11:03:37;;;;;;;;;;;;;;;22.47;75.76;100892.72;5055392;28;1988;-43
2021/06/24 11:06:09;;;;;;;;;;;;;;;22.48;75.95;100913.25;5057189;28;1849;-43
2021/06/24 11:08:36;;;;;;;;;;;;;;;22.50;75.58;100894.25;5052641;28;1464;-44
2021/06/24 11:11:07;;;;;;;;;;;;;;;22.54;75.55;100906.41;5051749;28;1504;-43
2021/06/24 11:13:44;;;;;;;;;;;;;;;22.57;75.48;100889.94;5055833;28;1913;-43
2021/06/24 11:16:25;;;;;;;;;;;;;;;22.53;75.98;100900.19;5050401;28;1906;-43
2021/06/24 11:18:55;;;;;;;;;;;;;;;22.52;76.04;100893.09;5051052;28;1819;-44
2021/06/24 11:21:37;;;;;;;;;;;;;;;22.53;76.32;100899.34;5052779;28;1391;-43
2021/06/24 11:24:13;;;;;;;;;;;;;;;22.54;76.43;100895.63;5050617;28;2385;-43
2021/06/24 11:26:42;;;;;;;;;;;;;;;22.59;76.10;100896.84;5056261;28;1450;-43
2021/06/24 11:29:17;;;;;;;;;;;;;;;22.55;76.21;100889.25;5058633;28;1610;-43
2021/06/24 11:31:46;;;;;;;;;;;;;;;22.54;76.14;100887.53;5056788;28;1749;-43
2021/06/24 11:34:18;;;;;;;;;;;;;;;22.56;76.29;100894.50;5056067;28;1905;-43
2021/06/24 11:36:48;;;;;;;;;;;;;;;22.51;76.66;100894.09;5055840;28;1505;-43
2021/06/24 11:39:21;;;;;;;;;;;;;;;22.53;76.42;100878.63;5063968;28;1844;-43
2021/06/24 11:41:52;;;;;;;;;;;;;;;22.54;76.64;100880.31;5057419;28;1459;-43
2021/06/24 11:44:24;;;;;;;;;;;;;;;22.52;76.54;100878.75;5051832;28;1685;-43
2021/06/24 11:46:55;;;;;;;;;;;;;;;22.52;76.62;100882.31;5057065;28;1496;-43
2021/06/24 11:49:30;;;;;;;;;;;;;;;22.51;76.68;100877.94;5055166;28;1595;-43
2021/06/24 12:00:35;;;;;;;;;;;;;;;22.54;76.64;100869.53;5060119;28;1533;-42
2021/06/24 12:03:06;;;;;;;;;;;;;;;22.53;76.85;100875.91;5060566;28;1612;-43
2021/06/24 12:05:33;;;;;;;;;;;;;;;22.53;76.54;100881.31;5059051;28;1634;-43
2021/06/24 12:08:00;;;;;;;;;;;;;;;22.55;76.65;100881.16;5063597;28;1322;-44
2021/06/24 12:10:26;;;;;;;;;;;;;;;22.53;76.88;100875.09;5061978;28;1805;-43
2021/06/24 12:12:54;;;;;;;;;;;;;;;22.55;76.93;100857.75;5061525;28;1447;-43
2021/06/24 12:15:21;;;;;;;;;;;;;;;22.54;76.77;100863.28;5061475;28;1983;-43
2021/06/24 12:17:47;;;;;;;;;;;;;;;22.60;76.89;100874.31;5060446;28;1630;-44
2021/06/24 12:20:18;;;;;;;;;;;;;;;22.67;76.96;100862.88;5057490;28;2099;-44
2021/06/24 12:22:47;;;;;;;;;;;;;;;22.62;77.32;100866.03;5063445;28;1272;-43
2021/06/24 12:25:15;;;;;;;;;;;;;;;22.61;76.97;100859.81;5061644;28;1727;-44
2021/06/24 12:27:42;;;;;;;;;;;;;;;22.60;77.67;100866.22;5055349;28;1694;-44
2021/06/24 12:30:12;;;;;;;;;;;;;;;22.56;77.20;100863.97;5056210;28;1588;-44
2021/06/24 12:32:39;;;;;;;;;;;;;;;22.56;77.41;100862.16;5058491;28;1609;-43
2021/06/24 12:35:07;;;;;;;;;;;;;;;22.54;77.22;100853.38;5053975;28;1909;-44
2021/06/24 12:37:35;;;;;;;;;;;;;;;22.55;77.39;100860.44;5056748;28;1416;-43
2021/06/24 12:40:03;;;;;;;;;;;;;;;22.57;77.31;100871.91;5055105;28;1587;-44
2021/06/24 12:42:30;;;;;;;;;;;;;;;22.58;77.05;100864.66;5052259;28;1519;-44
2021/06/24 12:44:59;;;;;;;;;;;;;;;22.57;77.21;100855.75;5055099;28;1537;-43
2021/06/24 12:47:43;;;;;;;;;;;;;;;22.61;77.17;100859.81;5057265;28;1571;-45
2021/06/24 12:50:13;;;;;;;;;;;;;;;22.55;76.73;100855.03;5058491;28;1701;-45
2021/06/24 12:52:44;;;;;;;;;;;;;;;22.61;76.44;100875.97;5058127;28;1824;-48
2021/06/24 12:55:32;;;;;;;;;;;;;;;22.69;76.91;100869.81;5058868;28;1985;-45
2021/06/24 12:57:59;;;;;;;;;;;;;;;22.63;77.51;100863.19;5048619;28;1387;-45
2021/06/24 13:00:26;;;;;;;;;;;;;;;22.63;77.40;100854.25;5050878;28;2068;-45
2021/06/24 13:02:54;;;;;;;;;;;;;;;22.64;77.23;100848.72;5052317;28;1468;-46
2021/06/24 13:05:24;;;;;;;;;;;;;;;22.68;77.21;100843.00;5049253;28;1592;-46
2021/06/24 13:07:57;;;;;;;;;;;;;;;22.81;77.83;100851.53;5050728;28;1295;-46
2021/06/24 13:10:24;;;;;;;;;;;;;;;22.85;77.87;100844.81;5057507;28;1884;-45
2021/06/24 13:12:51;;;;;;;;;;;;;;;22.82;78.11;100850.53;5059321;28;1445;-45
2021/06/24 13:15:31;;;;;;;;;;;;;;;22.81;78.40;100833.50;5054742;28;1906;-45
2021/06/24 13:17:59;;;;;;;;;;;;;;;22.84;78.76;100837.75;5054803;28;2559;-46
2021/06/24 13:20:26;;;;;;;;;;;;;;;22.75;78.79;100828.72;5056914;28;1488;-44
2021/06/24 13:23:05;;;;;;;;;;;;;;;22.80;79.05;100821.03;5059273;28;1475;-44